Time;durP1;ratioP1;P1;durP2;ratioP2;P2;SDS_P1;SDS_P2;PMS_P1;PMS_P2;Temp;Humidity;BMP_temperature;BMP_pressure;BME280_temperature;BME280_humidity;BME280_pressure;Samples;Min_cycle;Max_cycle;Signal;HPM_P1;HPM_P2
2022/03/23 00:01:23;;;;;;;6.57;5.70;;;;;;;;;;5049621;28;20440;-73
2022/03/23 00:03:49;;;;;;;10.03;6.23;;;;;;;;;;5048692;28;20434;-73
2022/03/23 00:06:17;;;;;;;5.97;5.37;;;;;;;;;;5031483;28;20430;-73
2022/03/23 00:08:43;;;;;;;12.73;5.27;;;;;;;;;;5049352;28;20438;-73
2022/03/23 00:11:09;;;;;;;11.13;5.40;;;;;;;;;;5049420;28;20770;-73
2022/03/23 00:13:36;;;;;;;5.77;5.27;;;;;;;;;;5049129;28;20930;-73
2022/03/23 00:16:02;;;;;;;9.83;5.53;;;;;;;;;;5049005;28;20445;-73
2022/03/23 00:18:28;;;;;;;7.53;5.20;;;;;;;;;;5031122;28;20462;-73
2022/03/23 00:20:54;;;;;;;6.87;5.67;;;;;;;;;;5049348;28;20834;-73
2022/03/23 00:23:21;;;;;;;5.73;5.03;;;;;;;;;;5049422;28;20429;-73
2022/03/23 00:25:48;;;;;;;12.27;5.10;;;;;;;;;;5048510;28;20442;-74
2022/03/23 00:28:14;;;;;;;10.80;6.43;;;;;;;;;;5049040;28;20430;-73
2022/03/23 00:30:40;;;;;;;7.17;5.10;;;;;;;;;;5049200;28;20481;-73
2022/03/23 00:33:06;;;;;;;10.80;5.43;;;;;;;;;;5047337;28;20514;-73
2022/03/23 00:35:32;;;;;;;8.30;6.33;;;;;;;;;;5048226;28;20730;-73
2022/03/23 00:37:59;;;;;;;8.80;6.27;;;;;;;;;;5048697;28;20435;-73
2022/03/23 00:40:25;;;;;;;10.47;5.83;;;;;;;;;;5047601;28;20554;-73
2022/03/23 00:42:52;;;;;;;8.20;6.17;;;;;;;;;;5026746;28;20740;-73
2022/03/23 00:45:18;;;;;;;11.13;6.80;;;;;;;;;;5049303;28;20430;-73
2022/03/23 00:47:45;;;;;;;15.93;8.93;;;;;;;;;;5047003;28;20453;-73
2022/03/23 00:50:11;;;;;;;10.20;7.73;;;;;;;;;;5049645;28;20525;-73
2022/03/23 00:52:37;;;;;;;6.27;5.67;;;;;;;;;;5030064;28;20993;-73
2022/03/23 00:55:04;;;;;;;23.87;8.87;;;;;;;;;;5046855;28;20446;-73
2022/03/23 00:57:30;;;;;;;15.10;5.53;;;;;;;;;;5048435;28;20426;-73
2022/03/23 00:59:56;;;;;;;12.30;6.70;;;;;;;;;;5048998;28;21068;-73
2022/03/23 01:02:22;;;;;;;12.37;7.27;;;;;;;;;;5048704;28;20496;-73
2022/03/23 01:04:48;;;;;;;9.90;6.63;;;;;;;;;;5047353;28;20430;-73
2022/03/23 01:07:14;;;;;;;7.27;5.97;;;;;;;;;;5046083;28;20438;-73
2022/03/23 01:09:40;;;;;;;10.93;5.67;;;;;;;;;;5047084;28;20945;-73
2022/03/23 01:12:06;;;;;;;6.20;5.60;;;;;;;;;;5048341;28;20481;-73
2022/03/23 01:14:32;;;;;;;8.93;5.80;;;;;;;;;;5049853;28;20784;-73
2022/03/23 01:16:58;;;;;;;8.37;5.60;;;;;;;;;;5052374;28;20949;-73
2022/03/23 01:19:27;;;;;;;11.63;6.13;;;;;;;;;;5051063;28;20450;-73
2022/03/23 01:21:53;;;;;;;7.07;6.30;;;;;;;;;;5052445;28;20426;-73
2022/03/23 01:24:19;;;;;;;14.13;5.80;;;;;;;;;;5052660;28;20469;-73
2022/03/23 01:26:45;;;;;;;15.00;5.00;;;;;;;;;;5052786;28;20838;-73
2022/03/23 01:29:11;;;;;;;12.00;6.27;;;;;;;;;;5052353;28;20492;-73
2022/03/23 01:31:37;;;;;;;16.13;5.03;;;;;;;;;;5049850;28;20504;-73
2022/03/23 01:34:03;;;;;;;5.40;4.90;;;;;;;;;;5050695;28;20485;-73
2022/03/23 01:36:30;;;;;;;8.60;6.70;;;;;;;;;;5052065;28;20453;-73
2022/03/23 01:38:56;;;;;;;7.67;5.33;;;;;;;;;;5052089;28;21101;-73
2022/03/23 01:41:23;;;;;;;6.57;5.63;;;;;;;;;;5052543;28;20782;-73
2022/03/23 01:43:49;;;;;;;5.80;4.77;;;;;;;;;;5051892;28;20429;-73
2022/03/23 01:46:18;;;;;;;10.03;5.00;;;;;;;;;;5052108;28;20933;-73
2022/03/23 01:48:45;;;;;;;8.30;5.00;;;;;;;;;;5051716;28;20469;-73
2022/03/23 01:51:11;;;;;;;5.67;5.17;;;;;;;;;;5052477;28;20430;-73
2022/03/23 01:53:37;;;;;;;16.53;5.80;;;;;;;;;;5034064;28;20460;-73
2022/03/23 01:56:04;;;;;;;8.67;4.80;;;;;;;;;;5051924;28;20422;-73
2022/03/23 01:58:30;;;;;;;6.80;5.33;;;;;;;;;;5051992;28;20854;-73
2022/03/23 02:00:55;;;;;;;5.00;4.60;;;;;;;;;;5052035;28;20458;-73
2022/03/23 02:03:22;;;;;;;6.30;5.70;;;;;;;;;;5051211;28;20512;-73
2022/03/23 02:05:48;;;;;;;7.53;6.60;;;;;;;;;;5049749;28;20434;-73
2022/03/23 02:08:15;;;;;;;6.83;5.40;;;;;;;;;;5051987;28;20427;-74
2022/03/23 02:10:41;;;;;;;7.47;6.10;;;;;;;;;;5050633;28;20461;-73
2022/03/23 02:13:09;;;;;;;7.73;5.30;;;;;;;;;;5050685;28;20996;-73
2022/03/23 02:15:35;;;;;;;7.13;5.23;;;;;;;;;;5051492;28;20925;-73
2022/03/23 02:18:02;;;;;;;9.17;5.33;;;;;;;;;;5033690;28;20437;-73
2022/03/23 02:20:28;;;;;;;8.50;5.23;;;;;;;;;;5051413;28;20429;-73
2022/03/23 02:22:54;;;;;;;5.63;4.70;;;;;;;;;;5051841;28;20426;-73
2022/03/23 02:25:22;;;;;;;6.20;5.60;;;;;;;;;;5051385;28;20445;-73
2022/03/23 02:27:48;;;;;;;7.60;6.50;;;;;;;;;;5051020;28;20537;-73
2022/03/23 02:30:14;;;;;;;12.03;7.63;;;;;;;;;;5051079;28;20458;-73
2022/03/23 02:32:40;;;;;;;13.23;6.63;;;;;;;;;;5050576;28;20893;-73
2022/03/23 02:35:08;;;;;;;13.33;6.60;;;;;;;;;;5033834;28;20484;-74
2022/03/23 02:37:35;;;;;;;9.87;7.63;;;;;;;;;;5033126;28;20440;-74
2022/03/23 02:40:01;;;;;;;9.97;6.63;;;;;;;;;;5051348;28;20505;-73
2022/03/23 02:42:27;;;;;;;9.40;6.77;;;;;;;;;;5032731;28;20435;-73
2022/03/23 02:44:53;;;;;;;12.10;5.63;;;;;;;;;;5033652;28;20755;-73
2022/03/23 02:47:19;;;;;;;5.67;5.17;;;;;;;;;;5050026;28;20929;-73
2022/03/23 02:49:45;;;;;;;5.80;5.27;;;;;;;;;;5050981;28;20434;-73
2022/03/23 02:52:11;;;;;;;5.40;4.90;;;;;;;;;;5050611;28;20482;-73
2022/03/23 03:03:14;;;;;;;7.17;5.60;;;;;;;;;;5050058;28;20880;-73
2022/03/23 03:05:40;;;;;;;17.83;6.20;;;;;;;;;;5050431;28;20981;-73
2022/03/23 03:10:51;;;;;;;13.40;6.23;;;;;;;;;;5050459;28;20516;-73
2022/03/23 03:13:17;;;;;;;5.80;5.33;;;;;;;;;;5050419;28;20494;-73
2022/03/23 03:15:43;;;;;;;7.37;5.63;;;;;;;;;;5050378;28;20434;-73
2022/03/23 03:18:09;;;;;;;7.10;5.80;;;;;;;;;;5050324;28;20438;-73
2022/03/23 03:20:35;;;;;;;8.93;5.37;;;;;;;;;;5050999;28;20517;-73
2022/03/23 03:23:01;;;;;;;6.63;6.07;;;;;;;;;;5032211;28;20564;-73
2022/03/23 03:25:27;;;;;;;7.10;6.10;;;;;;;;;;5049906;28;20422;-73
2022/03/23 03:27:53;;;;;;;8.43;5.07;;;;;;;;;;5049989;28;20438;-73
2022/03/23 03:30:20;;;;;;;6.83;5.60;;;;;;;;;;5050073;28;20478;-73
2022/03/23 03:32:46;;;;;;;7.63;5.43;;;;;;;;;;5048657;28;20528;-74
2022/03/23 03:35:13;;;;;;;6.83;6.07;;;;;;;;;;5050053;28;20950;-73
2022/03/23 03:37:40;;;;;;;6.03;5.50;;;;;;;;;;5047533;28;20496;-73
2022/03/23 03:40:06;;;;;;;8.37;5.70;;;;;;;;;;5050285;28;20426;-73
2022/03/23 03:42:32;;;;;;;19.93;6.67;;;;;;;;;;5049968;28;20470;-73
2022/03/23 03:44:58;;;;;;;9.27;5.47;;;;;;;;;;5049478;28;20430;-73
2022/03/23 03:47:24;;;;;;;12.23;4.60;;;;;;;;;;5031778;28;20445;-73
2022/03/23 03:49:51;;;;;;;5.20;3.70;;;;;;;;;;5049510;28;20430;-73
2022/03/23 03:52:20;;;;;;;5.37;4.87;;;;;;;;;;5048938;28;20474;-74
2022/03/23 03:54:46;;;;;;;6.93;5.30;;;;;;;;;;5049703;28;20435;-74
2022/03/23 03:57:12;;;;;;;5.83;4.50;;;;;;;;;;5048821;28;20445;-73
2022/03/23 03:59:38;;;;;;;6.23;5.57;;;;;;;;;;5049633;28;20504;-73
2022/03/23 04:02:05;;;;;;;5.10;4.70;;;;;;;;;;5048748;28;20546;-73
2022/03/23 04:04:31;;;;;;;7.50;5.17;;;;;;;;;;5048544;28;20492;-73
2022/03/23 04:06:57;;;;;;;6.37;5.77;;;;;;;;;;5049227;28;20454;-73
2022/03/23 04:09:23;;;;;;;7.77;5.70;;;;;;;;;;5049180;28;20525;-73
2022/03/23 04:11:49;;;;;;;5.40;5.10;;;;;;;;;;5049334;28;20481;-73
2022/03/23 04:14:17;;;;;;;7.57;5.37;;;;;;;;;;5048314;28;20557;-73
2022/03/23 04:16:43;;;;;;;6.20;5.53;;;;;;;;;;5048931;28;20438;-73
2022/03/23 04:19:09;;;;;;;8.07;4.97;;;;;;;;;;5046456;28;20826;-74
2022/03/23 04:21:35;;;;;;;11.77;5.73;;;;;;;;;;5049060;28;20426;-73
2022/03/23 04:24:01;;;;;;;8.37;5.70;;;;;;;;;;5048449;28;20426;-73
2022/03/23 04:26:27;;;;;;;7.73;5.73;;;;;;;;;;5048247;28;20426;-73
2022/03/23 04:28:53;;;;;;;8.23;6.13;;;;;;;;;;5047643;28;20987;-73
2022/03/23 04:31:20;;;;;;;5.83;5.27;;;;;;;;;;5048846;28;20527;-73
2022/03/23 04:33:47;;;;;;;5.90;5.33;;;;;;;;;;5047199;28;20817;-73
2022/03/23 04:36:13;;;;;;;7.53;5.87;;;;;;;;;;5048927;28;20841;-73
2022/03/23 04:38:39;;;;;;;5.10;4.70;;;;;;;;;;5030832;28;20434;-73
2022/03/23 04:41:05;;;;;;;5.40;4.90;;;;;;;;;;5048760;28;20473;-73
2022/03/23 04:43:32;;;;;;;8.73;4.97;;;;;;;;;;5047261;28;20520;-73
2022/03/23 04:45:58;;;;;;;10.03;5.73;;;;;;;;;;5048259;28;21037;-73
2022/03/23 04:48:24;;;;;;;6.13;5.57;;;;;;;;;;5048052;28;20445;-73
2022/03/23 04:50:50;;;;;;;12.40;6.00;;;;;;;;;;5048811;28;20442;-73
2022/03/23 04:53:17;;;;;;;8.40;6.27;;;;;;;;;;5048025;28;20500;-73
2022/03/23 04:55:43;;;;;;;6.00;5.40;;;;;;;;;;5048108;28;20450;-73
2022/03/23 04:58:09;;;;;;;6.83;6.23;;;;;;;;;;5047839;28;20544;-74
2022/03/23 05:00:35;;;;;;;8.80;5.10;;;;;;;;;;5048263;28;20560;-73
2022/03/23 05:03:02;;;;;;;10.43;5.90;;;;;;;;;;5048431;28;20541;-73
2022/03/23 05:05:28;;;;;;;7.30;6.63;;;;;;;;;;5047968;28;20426;-73
2022/03/23 05:07:54;;;;;;;14.23;6.80;;;;;;;;;;5048351;28;20436;-73
2022/03/23 05:10:20;;;;;;;8.03;6.80;;;;;;;;;;5048747;28;20430;-73
2022/03/23 05:12:46;;;;;;;10.27;6.63;;;;;;;;;;5044536;28;20481;-74
2022/03/23 05:15:13;;;;;;;8.03;6.33;;;;;;;;;;5046524;28;20555;-73
2022/03/23 05:17:40;;;;;;;9.53;6.50;;;;;;;;;;5046932;28;20438;-73
2022/03/23 05:20:07;;;;;;;10.37;6.83;;;;;;;;;;5048453;28;20516;-73
2022/03/23 05:22:33;;;;;;;7.40;6.60;;;;;;;;;;5048157;28;20458;-73
2022/03/23 05:24:59;;;;;;;9.43;7.13;;;;;;;;;;5047002;28;20783;-73
2022/03/23 05:27:25;;;;;;;9.17;6.60;;;;;;;;;;5046719;28;20934;-73
2022/03/23 05:29:51;;;;;;;22.03;7.43;;;;;;;;;;5048787;28;20516;-73
2022/03/23 05:32:17;;;;;;;14.70;6.70;;;;;;;;;;5030308;28;20488;-73
2022/03/23 05:34:44;;;;;;;13.43;7.60;;;;;;;;;;5031001;28;20423;-73
2022/03/23 05:37:11;;;;;;;10.70;6.23;;;;;;;;;;5030678;28;20434;-73
2022/03/23 05:39:37;;;;;;;9.70;6.03;;;;;;;;;;5048784;28;20440;-73
2022/03/23 05:42:03;;;;;;;11.20;6.30;;;;;;;;;;5047721;28;20465;-73
2022/03/23 05:44:29;;;;;;;6.83;6.20;;;;;;;;;;5048496;28;20651;-73
2022/03/23 05:46:55;;;;;;;14.10;6.43;;;;;;;;;;5048586;28;20435;-73
2022/03/23 05:49:21;;;;;;;9.27;6.90;;;;;;;;;;5048092;28;20422;-73
2022/03/23 05:51:47;;;;;;;8.80;6.80;;;;;;;;;;5046894;28;20466;-73
2022/03/23 05:54:13;;;;;;;9.53;7.47;;;;;;;;;;5048562;28;20442;-73
2022/03/23 05:56:39;;;;;;;9.77;6.37;;;;;;;;;;5047630;28;20855;-74
2022/03/23 05:59:05;;;;;;;9.80;6.93;;;;;;;;;;5048064;28;20438;-73
2022/03/23 06:01:32;;;;;;;8.13;6.70;;;;;;;;;;5031283;28;20854;-74
2022/03/23 06:03:58;;;;;;;16.03;8.53;;;;;;;;;;5051496;28;20461;-73
2022/03/23 06:06:25;;;;;;;13.97;7.97;;;;;;;;;;5052070;28;20430;-73
2022/03/23 06:08:51;;;;;;;17.20;8.60;;;;;;;;;;5051609;28;20438;-74
2022/03/23 06:11:17;;;;;;;21.17;8.90;;;;;;;;;;5050745;28;20541;-74
2022/03/23 06:13:44;;;;;;;12.23;7.93;;;;;;;;;;5051155;28;20457;-73
2022/03/23 06:16:10;;;;;;;10.17;8.27;;;;;;;;;;5051511;28;20474;-73
2022/03/23 06:18:37;;;;;;;13.10;8.03;;;;;;;;;;5050669;28;20454;-73
2022/03/23 06:21:03;;;;;;;16.17;8.90;;;;;;;;;;5051750;28;20434;-73
2022/03/23 06:23:30;;;;;;;13.30;8.70;;;;;;;;;;5051332;28;20437;-73
2022/03/23 06:25:56;;;;;;;9.87;7.20;;;;;;;;;;5051452;28;20473;-73
2022/03/23 06:28:23;;;;;;;15.80;8.07;;;;;;;;;;5051109;28;20485;-74
2022/03/23 06:30:50;;;;;;;10.77;7.77;;;;;;;;;;5050997;28;20477;-73
2022/03/23 06:33:16;;;;;;;12.40;8.63;;;;;;;;;;5050358;28;20501;-73
2022/03/23 06:35:42;;;;;;;9.23;7.60;;;;;;;;;;5032477;28;20434;-73
2022/03/23 06:38:08;;;;;;;9.10;8.20;;;;;;;;;;5051361;28;20450;-74
2022/03/23 06:40:34;;;;;;;14.83;8.37;;;;;;;;;;5050982;28;20430;-72
2022/03/23 06:43:01;;;;;;;14.90;8.83;;;;;;;;;;5050347;28;20948;-72
2022/03/23 06:45:27;;;;;;;13.50;8.20;;;;;;;;;;5049417;28;20431;-73
2022/03/23 06:47:53;;;;;;;18.53;9.83;;;;;;;;;;5031871;28;20809;-72
2022/03/23 06:50:19;;;;;;;14.03;8.13;;;;;;;;;;5050096;28;20438;-72
2022/03/23 06:52:45;;;;;;;17.57;8.83;;;;;;;;;;5049396;28;20548;-72
2022/03/23 06:55:11;;;;;;;24.77;8.27;;;;;;;;;;5051720;28;20441;-72
2022/03/23 06:57:37;;;;;;;20.73;8.70;;;;;;;;;;5040627;28;20446;-73
2022/03/23 07:00:09;;;;;;;8.87;7.70;;;;;;;;;;5047335;28;20787;-72
2022/03/23 07:02:34;;;;;;;12.63;7.80;;;;;;;;;;5050979;28;20446;-72
2022/03/23 07:05:00;;;;;;;11.37;8.23;;;;;;;;;;5050618;28;20437;-72
2022/03/23 07:07:26;;;;;;;8.93;7.10;;;;;;;;;;5050111;28;20442;-72
2022/03/23 07:09:52;;;;;;;15.07;8.60;;;;;;;;;;5049903;28;20480;-72
2022/03/23 07:12:20;;;;;;;16.87;8.47;;;;;;;;;;5049681;28;20497;-73
2022/03/23 07:14:48;;;;;;;10.27;8.00;;;;;;;;;;5050457;28;20793;-72
2022/03/23 07:17:14;;;;;;;19.63;8.67;;;;;;;;;;5049255;28;20442;-72
2022/03/23 07:19:40;;;;;;;15.10;9.07;;;;;;;;;;5030280;28;20621;-72
2022/03/23 07:22:06;;;;;;;18.70;9.87;;;;;;;;;;5046873;28;20533;-72
2022/03/23 07:24:32;;;;;;;16.27;9.83;;;;;;;;;;5050301;28;20791;-72
2022/03/23 07:26:59;;;;;;;11.40;8.77;;;;;;;;;;5030438;28;20443;-72
2022/03/23 07:29:25;;;;;;;11.83;8.43;;;;;;;;;;5064422;28;20944;-72
2022/03/23 07:31:51;;;;;;;15.17;8.77;;;;;;;;;;5070051;28;20469;-73
2022/03/23 07:34:19;;;;;;;11.77;9.53;;;;;;;;;;5057741;28;20495;-72
2022/03/23 07:36:46;;;;;;;15.20;8.77;;;;;;;;;;5066666;28;20434;-72
2022/03/23 07:39:16;;;;;;;9.10;7.47;;;;;;;;;;5063559;28;20452;-72
2022/03/23 07:41:42;;;;;;;14.57;8.80;;;;;;;;;;5062569;28;20441;-72
2022/03/23 07:44:08;;;;;;;9.30;7.43;;;;;;;;;;5067692;28;20529;-73
2022/03/23 07:46:34;;;;;;;16.60;7.10;;;;;;;;;;5063560;28;20447;-72
2022/03/23 07:49:00;;;;;;;14.07;8.33;;;;;;;;;;5051153;28;20529;-73
2022/03/23 07:51:26;;;;;;;10.57;8.17;;;;;;;;;;5067445;28;20445;-72
2022/03/23 07:53:53;;;;;;;16.43;8.93;;;;;;;;;;5066807;28;20833;-72
2022/03/23 07:56:19;;;;;;;13.17;7.57;;;;;;;;;;5068173;28;20954;-72
2022/03/23 07:58:45;;;;;;;11.80;7.27;;;;;;;;;;5047334;28;20519;-72
2022/03/23 08:01:11;;;;;;;10.27;7.90;;;;;;;;;;5051439;28;20499;-72
2022/03/23 08:03:37;;;;;;;13.70;8.23;;;;;;;;;;5068444;28;20516;-72
2022/03/23 08:06:03;;;;;;;30.33;8.33;;;;;;;;;;5065502;28;20437;-72
2022/03/23 08:08:29;;;;;;;10.23;7.80;;;;;;;;;;5065354;28;20447;-72
2022/03/23 08:10:55;;;;;;;14.80;7.30;;;;;;;;;;5067009;28;20494;-72
2022/03/23 08:13:21;;;;;;;26.83;7.77;;;;;;;;;;5067708;28;20512;-72
2022/03/23 08:15:47;;;;;;;8.40;7.60;;;;;;;;;;5069118;28;20437;-72
2022/03/23 08:18:17;;;;;;;10.83;7.17;;;;;;;;;;5065796;28;20446;-72
2022/03/23 08:20:43;;;;;;;16.50;7.97;;;;;;;;;;5067516;28;20437;-72
2022/03/23 08:23:10;;;;;;;11.23;7.17;;;;;;;;;;5064199;28;20456;-72
2022/03/23 08:25:38;;;;;;;16.80;7.30;;;;;;;;;;5067175;28;20500;-72
2022/03/23 08:28:05;;;;;;;11.10;8.30;;;;;;;;;;5049294;28;20434;-72
2022/03/23 08:30:31;;;;;;;17.53;7.57;;;;;;;;;;5067624;28;20503;-72
2022/03/23 08:32:57;;;;;;;14.23;8.97;;;;;;;;;;5049640;28;20501;-72
2022/03/23 08:35:24;;;;;;;10.83;7.63;;;;;;;;;;5064916;28;20482;-73
2022/03/23 08:37:50;;;;;;;13.03;9.03;;;;;;;;;;5065606;28;20717;-67
2022/03/23 08:40:16;;;;;;;11.40;8.23;;;;;;;;;;5044787;28;20917;-72
2022/03/23 08:42:42;;;;;;;15.97;7.93;;;;;;;;;;5063429;28;20441;-72
2022/03/23 08:45:08;;;;;;;10.47;7.67;;;;;;;;;;5047182;28;20515;-72
2022/03/23 08:47:35;;;;;;;16.50;8.30;;;;;;;;;;5063974;28;20446;-73
2022/03/23 08:50:01;;;;;;;9.80;8.00;;;;;;;;;;5067411;28;20445;-72
2022/03/23 08:52:29;;;;;;;15.60;9.43;;;;;;;;;;5067072;28;20488;-74
2022/03/23 08:54:55;;;;;;;10.80;8.50;;;;;;;;;;5065537;28;20445;-72
2022/03/23 08:57:22;;;;;;;11.70;8.70;;;;;;;;;;5066373;28;20438;-72
2022/03/23 08:59:48;;;;;;;15.10;7.27;;;;;;;;;;5063990;28;20449;-72
2022/03/23 09:02:14;;;;;;;10.50;7.83;;;;;;;;;;5063599;28;20932;-72
2022/03/23 09:04:41;;;;;;;12.27;8.10;;;;;;;;;;5067784;28;20437;-72
2022/03/23 09:07:07;;;;;;;10.30;7.77;;;;;;;;;;5064920;28;20540;-72
2022/03/23 09:09:33;;;;;;;15.13;8.93;;;;;;;;;;5066578;28;20509;-72
2022/03/23 09:11:59;;;;;;;13.47;8.57;;;;;;;;;;5057172;28;20538;-72
2022/03/23 09:14:25;;;;;;;16.53;9.20;;;;;;;;;;5064280;28;20483;-72
2022/03/23 09:16:50;;;;;;;14.00;8.80;;;;;;;;;;5049535;28;20941;-72
2022/03/23 09:19:20;;;;;;;14.10;9.43;;;;;;;;;;5064717;28;20941;-72
2022/03/23 09:21:46;;;;;;;13.70;8.30;;;;;;;;;;5065745;28;20436;-72
2022/03/23 09:24:13;;;;;;;24.40;10.13;;;;;;;;;;5067853;28;20461;-72
2022/03/23 09:26:39;;;;;;;26.37;13.13;;;;;;;;;;5067266;28;20468;-72
2022/03/23 09:29:07;;;;;;;14.57;10.77;;;;;;;;;;5066291;28;20436;-72
2022/03/23 09:31:33;;;;;;;20.20;12.90;;;;;;;;;;5048466;28;20517;-72
2022/03/23 09:34:02;;;;;;;14.03;10.40;;;;;;;;;;5067005;28;20476;-72
2022/03/23 09:39:13;;;;;;;17.13;9.10;;;;;;;;;;5068972;28;20455;-72
2022/03/23 09:41:39;;;;;;;19.77;9.30;;;;;;;;;;5068196;28;20480;-72
2022/03/23 09:44:05;;;;;;;13.73;9.37;;;;;;;;;;5068877;28;20988;-71
2022/03/23 09:46:32;;;;;;;14.77;9.30;;;;;;;;;;5068300;28;20529;-71
2022/03/23 09:48:58;;;;;;;23.50;10.60;;;;;;;;;;5037076;28;20805;-72
2022/03/23 09:51:25;;;;;;;20.17;9.27;;;;;;;;;;5065553;28;21014;-72
2022/03/23 09:53:51;;;;;;;26.80;10.50;;;;;;;;;;5052212;28;20441;-72
2022/03/23 09:56:17;;;;;;;12.10;9.30;;;;;;;;;;5067990;28;20472;-72
2022/03/23 09:58:43;;;;;;;15.17;9.80;;;;;;;;;;5068883;28;20444;-72
2022/03/23 10:01:28;;;;;;;13.23;10.10;;;;;;;;;;5065163;28;20448;-72
2022/03/23 10:04:13;;;;;;;18.60;9.00;;;;;;;;;;5071220;28;20991;-72
2022/03/23 10:07:00;;;;;;;16.20;9.07;;;;;;;;;;5050553;28;20559;-72
2022/03/23 10:09:26;;;;;;;14.40;9.17;;;;;;;;;;5064953;28;20449;-72
2022/03/23 10:12:11;;;;;;;11.37;7.73;;;;;;;;;;5065921;28;20468;-72
2022/03/23 10:15:01;;;;;;;25.17;10.87;;;;;;;;;;5035690;28;20484;-72
2022/03/23 10:17:37;;;;;;;17.27;10.00;;;;;;;;;;5066120;28;20768;-72
2022/03/23 10:20:03;;;;;;;21.60;10.07;;;;;;;;;;5060529;28;20449;-72
2022/03/23 10:22:29;;;;;;;29.13;11.63;;;;;;;;;;5068143;28;21020;-73
2022/03/23 10:24:55;;;;;;;23.23;11.20;;;;;;;;;;5065889;28;20529;-72
2022/03/23 10:27:24;;;;;;;14.57;9.87;;;;;;;;;;5063597;28;20541;-72
2022/03/23 10:29:54;;;;;;;15.17;9.87;;;;;;;;;;5069298;28;20472;-72
2022/03/23 10:32:21;;;;;;;15.07;9.60;;;;;;;;;;5065482;28;20482;-72
2022/03/23 10:34:48;;;;;;;13.67;10.20;;;;;;;;;;5047111;28;20445;-72
2022/03/23 10:37:17;;;;;;;14.30;9.37;;;;;;;;;;5068058;28;20913;-72
2022/03/23 10:39:43;;;;;;;15.27;11.10;;;;;;;;;;5041097;28;20441;-71
2022/03/23 10:42:14;;;;;;;15.90;10.00;;;;;;;;;;5057827;28;20440;-72
2022/03/23 10:44:41;;;;;;;16.27;11.80;;;;;;;;;;5070119;28;21041;-72
2022/03/23 10:47:07;;;;;;;18.03;10.37;;;;;;;;;;5055096;28;20448;-72
2022/03/23 10:49:35;;;;;;;13.97;6.97;;;;;;;;;;5066086;28;21090;-71
2022/03/23 10:52:08;;;;;;;15.93;9.70;;;;;;;;;;5059770;28;20477;-72
2022/03/23 10:54:35;;;;;;;23.63;11.83;;;;;;;;;;5064228;28;20995;-72
2022/03/23 10:57:02;;;;;;;14.83;10.87;;;;;;;;;;5062067;28;20514;-72
2022/03/23 10:59:28;;;;;;;20.10;11.70;;;;;;;;;;5037340;28;20436;-72
2022/03/23 11:02:10;;;;;;;18.27;12.60;;;;;;;;;;5063178;28;20450;-72
2022/03/23 11:04:42;;;;;;;15.87;11.23;;;;;;;;;;5064432;28;20441;-72
2022/03/23 11:07:22;;;;;;;15.00;9.97;;;;;;;;;;5068855;28;20913;-72
2022/03/23 11:18:06;;;;;;;18.97;12.70;;;;;;;;;;5068811;28;20962;-74
2022/03/23 11:20:58;;;;;;;17.40;11.97;;;;;;;;;;5063914;28;20533;-72
2022/03/23 11:23:31;;;;;;;18.63;12.03;;;;;;;;;;5063923;28;20917;-74
2022/03/23 11:26:00;;;;;;;25.00;12.83;;;;;;;;;;5059619;28;20448;-72
2022/03/23 11:28:26;;;;;;;16.67;13.60;;;;;;;;;;5064986;28;20506;-73
2022/03/23 11:30:53;;;;;;;17.40;13.83;;;;;;;;;;5065742;28;20477;-72
2022/03/23 11:33:23;;;;;;;19.20;11.90;;;;;;;;;;5045594;28;20535;-71
2022/03/23 11:35:50;;;;;;;17.30;12.03;;;;;;;;;;5066145;28;20437;-71
2022/03/23 11:38:21;;;;;;;24.40;12.53;;;;;;;;;;5067526;28;20441;-72
2022/03/23 11:40:47;;;;;;;18.30;11.73;;;;;;;;;;5041888;28;20444;-72
2022/03/23 11:43:15;;;;;;;18.17;12.77;;;;;;;;;;5059318;28;20462;-73
2022/03/23 11:45:42;;;;;;;15.60;11.70;;;;;;;;;;5047824;28;20532;-72
2022/03/23 11:48:30;;;;;;;16.93;13.90;;;;;;;;;;5057939;28;20442;-72
2022/03/23 11:51:05;;;;;;;19.10;12.20;;;;;;;;;;5045391;28;20443;-72
2022/03/23 11:53:50;;;;;;;17.07;12.43;;;;;;;;;;5060141;28;20597;-71
2022/03/23 11:56:24;;;;;;;16.77;12.63;;;;;;;;;;5048425;28;20556;-72
2022/03/23 11:58:52;;;;;;;17.50;12.73;;;;;;;;;;5056042;28;20444;-72
2022/03/23 12:01:18;;;;;;;14.90;11.93;;;;;;;;;;5061910;28;20508;-72
2022/03/23 12:03:44;;;;;;;20.23;13.50;;;;;;;;;;5060047;28;20457;-72
2022/03/23 12:06:14;;;;;;;27.00;12.40;;;;;;;;;;5064717;28;21017;-72
2022/03/23 12:08:47;;;;;;;19.10;11.70;;;;;;;;;;5059678;28;20430;-72
2022/03/23 12:11:32;;;;;;;13.17;11.73;;;;;;;;;;5063563;28;20433;-71
2022/03/23 12:13:59;;;;;;;15.80;12.67;;;;;;;;;;5057676;28;20556;-71
2022/03/23 12:16:43;;;;;;;30.10;13.00;;;;;;;;;;5063902;28;20437;-71
2022/03/23 12:19:10;;;;;;;26.70;13.17;;;;;;;;;;5055955;28;20437;-72
2022/03/23 12:21:44;;;;;;;16.20;11.07;;;;;;;;;;5047762;28;20507;-72
2022/03/23 12:24:25;;;;;;;29.20;11.67;;;;;;;;;;5061879;28;20775;-72
2022/03/23 12:26:56;;;;;;;17.00;13.47;;;;;;;;;;5059527;28;20802;-72
2022/03/23 12:29:33;;;;;;;17.90;11.90;;;;;;;;;;5045121;28;20475;-71
2022/03/23 12:32:05;;;;;;;17.70;11.53;;;;;;;;;;5064648;28;20899;-72
2022/03/23 12:34:32;;;;;;;14.50;10.57;;;;;;;;;;5063543;28;20512;-74
2022/03/23 12:37:07;;;;;;;19.57;12.37;;;;;;;;;;5058797;28;20444;-71
2022/03/23 12:39:34;;;;;;;16.50;11.77;;;;;;;;;;5064443;28;20459;-73
2022/03/23 12:42:02;;;;;;;18.37;12.60;;;;;;;;;;5066795;28;20907;-72
2022/03/23 12:44:30;;;;;;;17.20;13.87;;;;;;;;;;5059943;28;20472;-73
2022/03/23 12:46:56;;;;;;;16.43;12.00;;;;;;;;;;5060001;28;20516;-72
2022/03/23 12:58:05;;;;;;;17.97;13.97;;;;;;;;;;5066358;28;20963;-73
2022/03/23 13:00:37;;;;;;;15.20;11.73;;;;;;;;;;5067953;28;20444;-72
2022/03/23 13:03:06;;;;;;;13.37;10.83;;;;;;;;;;5048048;28;20432;-73
2022/03/23 13:05:36;;;;;;;21.07;13.30;;;;;;;;;;5066139;28;20421;-72
2022/03/23 13:08:21;;;;;;;18.97;12.40;;;;;;;;;;5066555;28;20476;-72
2022/03/23 13:11:00;;;;;;;18.80;12.27;;;;;;;;;;5070218;28;20405;-72
2022/03/23 13:13:29;;;;;;;22.50;13.17;;;;;;;;;;5073247;28;20473;-73
2022/03/23 13:15:56;;;;;;;9.20;8.33;;;;;;;;;;5064336;28;20421;-72
2022/03/23 13:18:31;;;;;;;21.07;14.80;;;;;;;;;;5051049;28;20445;-73
2022/03/23 13:20:58;;;;;;;19.97;13.50;;;;;;;;;;5071653;28;20422;-72
2022/03/23 13:23:25;;;;;;;15.03;11.83;;;;;;;;;;5068593;28;20442;-72
2022/03/23 13:26:03;;;;;;;20.03;11.73;;;;;;;;;;5069825;28;20468;-71
2022/03/23 13:28:32;;;;;;;16.60;13.13;;;;;;;;;;5070079;28;20432;-72
2022/03/23 13:31:01;;;;;;;23.90;13.50;;;;;;;;;;5069850;28;20477;-72
2022/03/23 13:33:37;;;;;;;15.27;11.17;;;;;;;;;;5070635;28;20485;-72
2022/03/23 13:36:03;;;;;;;20.63;12.70;;;;;;;;;;5048492;28;20468;-72
2022/03/23 13:38:40;;;;;;;21.57;11.43;;;;;;;;;;5069280;28;20440;-73
2022/03/23 13:43:52;;;;;;;11.03;8.80;;;;;;;;;;5073150;28;20420;-72
2022/03/23 13:46:18;;;;;;;16.00;11.57;;;;;;;;;;5070880;28;20445;-72
2022/03/23 13:48:44;;;;;;;17.73;11.70;;;;;;;;;;5071837;28;20437;-73
2022/03/23 13:51:10;;;;;;;11.43;10.27;;;;;;;;;;5051743;28;20425;-72
2022/03/23 13:53:36;;;;;;;22.93;12.47;;;;;;;;;;5072404;28;20546;-74
2022/03/23 13:56:03;;;;;;;15.07;10.83;;;;;;;;;;5072106;28;20897;-72
2022/03/23 13:58:29;;;;;;;16.60;11.50;;;;;;;;;;5071403;28;20459;-72
2022/03/23 14:00:56;;;;;;;13.90;12.37;;;;;;;;;;5049955;28;20445;-72
2022/03/23 14:03:35;;;;;;;13.87;12.20;;;;;;;;;;5072192;28;20978;-72
2022/03/23 14:06:19;;;;;;;14.53;11.67;;;;;;;;;;5051079;28;20475;-72
2022/03/23 14:08:51;;;;;;;18.73;13.77;;;;;;;;;;5053617;28;21287;-72
2022/03/23 14:11:17;;;;;;;18.77;13.50;;;;;;;;;;5069387;28;20445;-72
2022/03/23 14:13:52;;;;;;;21.07;13.63;;;;;;;;;;5072290;28;21007;-73
2022/03/23 14:16:23;;;;;;;21.47;13.57;;;;;;;;;;5051302;28;20865;-72
2022/03/23 14:18:49;;;;;;;14.70;11.00;;;;;;;;;;5068300;28;20890;-72
2022/03/23 14:21:21;;;;;;;20.70;13.10;;;;;;;;;;5070858;28;20909;-72
2022/03/23 14:23:47;;;;;;;16.00;10.63;;;;;;;;;;5071862;28;20426;-72
2022/03/23 14:26:29;;;;;;;22.77;13.17;;;;;;;;;;5070687;28;20801;-72
2022/03/23 14:28:56;;;;;;;27.70;13.63;;;;;;;;;;5063798;28;20443;-72
2022/03/23 14:31:23;;;;;;;21.03;14.77;;;;;;;;;;5068857;28;20480;-72
2022/03/23 14:34:03;;;;;;;18.80;14.47;;;;;;;;;;5070098;28;20484;-72
2022/03/23 14:36:29;;;;;;;29.13;15.53;;;;;;;;;;5071537;28;20440;-72
2022/03/23 14:38:58;;;;;;;16.67;12.83;;;;;;;;;;5068678;28;20515;-72
2022/03/23 14:41:28;;;;;;;18.87;12.67;;;;;;;;;;5071175;28;20478;-73
2022/03/23 14:43:55;;;;;;;21.17;14.00;;;;;;;;;;5071693;28;20445;-72
2022/03/23 14:46:25;;;;;;;16.20;13.60;;;;;;;;;;5067298;28;20992;-72
2022/03/23 14:49:11;;;;;;;17.17;12.30;;;;;;;;;;5051436;28;20434;-72
2022/03/23 14:51:38;;;;;;;20.50;14.00;;;;;;;;;;5053048;28;21036;-72
2022/03/23 14:54:06;;;;;;;15.97;10.77;;;;;;;;;;5067646;28;20474;-72
2022/03/23 14:56:33;;;;;;;16.60;12.20;;;;;;;;;;5067901;28;20492;-72
2022/03/23 14:58:59;;;;;;;17.80;12.03;;;;;;;;;;5068836;28;20433;-72
2022/03/23 15:01:26;;;;;;;15.10;11.00;;;;;;;;;;5069842;28;20854;-72
2022/03/23 15:03:53;;;;;;;19.27;13.00;;;;;;;;;;5071055;28;20429;-72
2022/03/23 15:14:34;;;;;;;17.53;12.63;;;;;;;;;;5071257;28;20452;-72
2022/03/23 15:17:00;;;;;;;20.73;10.07;;;;;;;;;;5068557;28;20445;-72